createdAt,value
2022-09-04T00:00:42.992Z,6.10
2022-09-04T00:01:45.054Z,5.80
2022-09-04T00:02:42.992Z,5.70
2022-09-04T00:03:43.096Z,5.90
2022-09-04T00:04:43.134Z,5.80
2022-09-04T00:05:42.943Z,5.90
2022-09-04T00:06:42.937Z,5.60
2022-09-04T00:07:42.933Z,5.70
2022-09-04T00:08:42.944Z,6.10
2022-09-04T00:09:42.895Z,5.90
2022-09-04T00:10:42.885Z,5.60
2022-09-04T00:11:42.884Z,6.00
2022-09-04T00:12:42.865Z,5.90
2022-09-04T00:13:42.866Z,5.60
2022-09-04T00:14:42.858Z,5.90
2022-09-04T00:15:42.848Z,5.60
2022-09-04T00:16:43.090Z,5.70
2022-09-04T00:17:42.825Z,5.80
2022-09-04T00:18:42.799Z,5.80
2022-09-04T00:19:42.798Z,5.50
2022-09-04T00:20:42.946Z,5.60
2022-09-04T00:21:42.777Z,6.10
2022-09-04T00:22:42.783Z,5.90
2022-09-04T00:23:42.787Z,5.90
2022-09-04T00:24:42.780Z,6.00
2022-09-04T00:25:42.719Z,5.50
2022-09-04T00:26:42.722Z,5.30
2022-09-04T00:27:42.709Z,5.30
2022-09-04T00:28:42.851Z,5.30
2022-09-04T00:29:42.688Z,5.60
2022-09-04T00:30:42.913Z,5.00
2022-09-04T00:31:42.661Z,4.80
2022-09-04T00:32:42.659Z,5.00
2022-09-04T00:33:42.641Z,5.10
2022-09-04T00:34:42.621Z,5.40
2022-09-04T00:35:42.623Z,5.50
2022-09-04T00:36:45.789Z,5.20
2022-09-04T00:37:43.603Z,5.30
2022-09-04T00:38:42.611Z,5.50
2022-09-04T00:39:42.609Z,5.50
2022-09-04T00:40:42.562Z,5.30
2022-09-04T00:41:42.552Z,5.40
2022-09-04T00:42:42.543Z,5.60
2022-09-04T00:43:42.583Z,5.90
2022-09-04T00:44:42.525Z,5.10
2022-09-04T00:45:42.589Z,5.40
2022-09-04T00:46:42.493Z,5.70
2022-09-04T00:47:42.494Z,5.60
2022-09-04T00:48:42.475Z,5.70
2022-09-04T00:49:42.473Z,5.50
2022-09-04T00:50:42.464Z,5.90
2022-09-04T00:51:42.456Z,6.20
2022-09-04T00:52:42.436Z,6.50
2022-09-04T00:53:42.426Z,6.30
2022-09-04T00:54:42.417Z,6.10
2022-09-04T00:55:42.405Z,6.00
2022-09-04T00:56:42.424Z,6.10
2022-09-04T00:57:42.389Z,5.90
2022-09-04T00:58:42.370Z,6.10
2022-09-04T00:59:42.380Z,6.30
2022-09-04T01:00:42.389Z,6.00
2022-09-04T01:01:42.454Z,6.30
2022-09-04T01:02:42.338Z,6.70
2022-09-04T01:03:42.321Z,6.10
2022-09-04T01:04:42.312Z,6.00
2022-09-04T01:05:42.311Z,6.40
2022-09-04T01:06:42.277Z,6.10
2022-09-04T01:07:42.279Z,6.10
2022-09-04T01:08:42.260Z,5.80
2022-09-04T01:09:42.251Z,5.50
2022-09-04T01:10:42.260Z,5.40
2022-09-04T01:11:42.231Z,5.20
2022-09-04T01:12:42.223Z,5.60
2022-09-04T01:13:42.222Z,5.40
2022-09-04T01:14:42.201Z,6.00
2022-09-04T01:15:42.193Z,6.00
2022-09-04T01:16:42.265Z,6.20
2022-09-04T01:17:42.194Z,6.30
2022-09-04T01:18:42.164Z,6.10
2022-09-04T01:19:42.153Z,6.40
2022-09-04T01:20:42.133Z,6.60
2022-09-04T01:21:42.116Z,7.40
2022-09-04T01:22:42.133Z,6.40
2022-09-04T01:23:42.094Z,6.80
2022-09-04T01:24:42.092Z,6.40
2022-09-04T01:25:42.076Z,6.70
2022-09-04T01:26:42.064Z,6.50
2022-09-04T01:27:42.063Z,7.50
2022-09-04T01:28:42.051Z,7.70
2022-09-04T01:29:42.038Z,7.50
2022-09-04T01:30:42.017Z,7.50
2022-09-04T01:31:42.078Z,8.80
2022-09-04T01:32:42.016Z,8.60
2022-09-04T01:33:41.985Z,8.30
2022-09-04T01:34:41.977Z,8.60
2022-09-04T01:35:41.967Z,8.30
2022-09-04T01:36:41.957Z,8.50
2022-09-04T01:37:41.959Z,8.90
2022-09-04T01:38:41.946Z,8.60
2022-09-04T01:39:42.023Z,9.10
2022-09-04T01:40:41.920Z,9.00
2022-09-04T01:41:41.918Z,8.30
2022-09-04T01:42:41.905Z,9.10
2022-09-04T01:43:41.879Z,9.30
2022-09-04T01:44:41.868Z,9.20
2022-09-04T01:45:41.906Z,9.10
2022-09-04T01:46:41.856Z,9.00
2022-09-04T01:47:41.848Z,9.10
2022-09-04T01:48:41.831Z,9.40
2022-09-04T01:49:41.820Z,9.30
2022-09-04T01:50:41.825Z,9.90
2022-09-04T01:51:41.816Z,9.90
2022-09-04T01:52:41.803Z,9.10
2022-09-04T01:53:41.772Z,10.00
2022-09-04T01:54:41.762Z,9.50
2022-09-04T01:55:41.776Z,9.60
2022-09-04T01:56:41.752Z,9.70
2022-09-04T01:57:41.744Z,9.80
2022-09-04T01:58:41.728Z,9.30
2022-09-04T01:59:41.705Z,9.90
2022-09-04T02:00:41.739Z,9.70
2022-09-04T02:01:41.949Z,9.80
2022-09-04T02:02:41.684Z,9.30
2022-09-04T02:03:41.665Z,10.10
2022-09-04T02:04:41.653Z,9.80
2022-09-04T02:05:41.645Z,9.70
2022-09-04T02:06:41.644Z,10.30
2022-09-04T02:07:41.636Z,10.50
2022-09-04T02:08:41.614Z,9.90
2022-09-04T02:09:41.708Z,10.10
2022-09-04T02:10:41.686Z,10.40
2022-09-04T02:11:41.648Z,9.90
2022-09-04T02:12:41.635Z,10.60
2022-09-04T02:13:41.706Z,10.10
2022-09-04T02:14:41.538Z,9.80
2022-09-04T02:15:41.533Z,10.00
2022-09-04T02:16:41.587Z,9.40
2022-09-04T02:17:41.529Z,9.70
2022-09-04T02:18:41.514Z,9.90
2022-09-04T02:19:41.521Z,10.00
2022-09-04T02:20:41.480Z,9.50
2022-09-04T02:21:41.469Z,9.70
2022-09-04T02:22:41.471Z,9.60
2022-09-04T02:23:41.480Z,9.40
2022-09-04T02:24:41.462Z,9.60
2022-09-04T02:25:41.430Z,8.50
2022-09-04T02:26:41.413Z,8.70
2022-09-04T02:27:41.419Z,8.50
2022-09-04T02:28:41.391Z,8.50
2022-09-04T02:29:41.432Z,8.70
2022-09-04T02:30:41.362Z,7.90
2022-09-04T02:31:41.400Z,7.90
2022-09-04T02:32:41.356Z,7.50
2022-09-04T02:33:41.347Z,7.30
2022-09-04T02:34:41.328Z,7.60
2022-09-04T02:35:41.343Z,6.70
2022-09-04T02:36:41.304Z,6.70
2022-09-04T02:37:41.323Z,6.50
2022-09-04T02:38:41.284Z,6.00
2022-09-04T02:39:41.345Z,6.30
2022-09-04T02:40:41.254Z,6.30
2022-09-04T02:41:41.262Z,5.60
2022-09-04T02:42:41.261Z,5.40
2022-09-04T02:43:41.225Z,6.00
2022-09-04T02:44:41.207Z,5.40
2022-09-04T02:45:41.203Z,5.60
2022-09-04T02:46:43.273Z,5.60
2022-09-04T02:47:41.196Z,5.00
2022-09-04T02:48:41.166Z,5.50
2022-09-04T02:49:41.166Z,5.20
2022-09-04T02:50:41.146Z,5.20
2022-09-04T02:51:41.156Z,5.70
2022-09-04T02:52:41.147Z,5.60
2022-09-04T02:53:41.117Z,5.20
2022-09-04T02:54:41.109Z,5.40
2022-09-04T02:55:41.100Z,6.00
2022-09-04T02:56:41.077Z,6.10
2022-09-04T02:57:41.079Z,6.10
2022-09-04T02:58:41.059Z,5.90
2022-09-04T02:59:41.050Z,6.60
2022-09-04T03:00:41.087Z,6.00
2022-09-04T03:01:41.081Z,6.20
2022-09-04T03:02:41.030Z,7.10
2022-09-04T03:03:41.010Z,6.50
2022-09-04T03:04:40.992Z,6.70
2022-09-04T03:05:40.992Z,6.90
2022-09-04T03:06:40.970Z,6.50
2022-09-04T03:07:40.972Z,6.40
2022-09-04T03:08:40.951Z,6.70
2022-09-04T03:09:40.942Z,7.10
2022-09-04T03:10:40.932Z,6.60
2022-09-04T03:11:40.922Z,7.00
2022-09-04T03:12:40.912Z,7.00
2022-09-04T03:13:40.914Z,6.70
2022-09-04T03:14:40.887Z,7.30
2022-09-04T03:15:40.892Z,7.50
2022-09-04T03:16:40.921Z,7.40
2022-09-04T03:17:40.864Z,6.90
2022-09-04T03:18:40.862Z,6.20
2022-09-04T03:19:40.834Z,7.30
2022-09-04T03:20:40.818Z,6.80
2022-09-04T03:21:40.807Z,7.00
2022-09-04T03:22:40.825Z,6.70
2022-09-04T03:23:40.795Z,7.60
2022-09-04T03:24:40.776Z,8.50
2022-09-04T03:25:40.766Z,8.20
2022-09-04T03:26:40.757Z,8.30
2022-09-04T03:27:40.754Z,8.40
2022-09-04T03:28:40.726Z,8.40
2022-09-04T03:29:40.720Z,8.30
2022-09-04T03:30:40.707Z,8.50
2022-09-04T03:31:40.816Z,8.40
2022-09-04T03:32:40.868Z,8.00
2022-09-04T03:33:40.677Z,9.10
2022-09-04T03:34:40.669Z,8.00
2022-09-04T03:35:40.658Z,7.90
2022-09-04T03:36:40.649Z,7.90
2022-09-04T03:37:40.650Z,8.50
2022-09-04T03:38:40.638Z,7.90
2022-09-04T03:39:40.664Z,7.40
2022-09-04T03:40:40.599Z,7.90
2022-09-04T03:41:40.599Z,7.70
2022-09-04T03:42:40.610Z,8.40
2022-09-04T03:43:40.643Z,9.10
2022-09-04T03:44:40.551Z,8.50
2022-09-04T03:45:40.541Z,8.60
2022-09-04T03:46:40.609Z,8.90
2022-09-04T03:47:40.541Z,9.60
2022-09-04T03:48:40.501Z,8.70
2022-09-04T03:49:40.523Z,9.60
2022-09-04T03:50:40.495Z,9.20
2022-09-04T03:51:40.481Z,9.50
2022-09-04T03:52:40.626Z,9.50
2022-09-04T03:53:40.452Z,9.80
2022-09-04T03:54:40.445Z,9.20
2022-09-04T03:55:40.444Z,8.70
2022-09-04T03:56:40.425Z,9.70
2022-09-04T03:57:40.422Z,9.60
2022-09-04T03:58:40.396Z,9.20
2022-09-04T03:59:40.435Z,9.10
2022-09-04T04:00:40.412Z,9.00
2022-09-04T04:01:40.374Z,9.40
2022-09-04T04:02:40.417Z,9.20
2022-09-04T04:03:40.347Z,8.70
2022-09-04T04:04:40.336Z,8.50
2022-09-04T04:05:40.327Z,8.80
2022-09-04T04:06:40.305Z,8.70
2022-09-04T04:07:40.317Z,8.40
2022-09-04T04:08:40.304Z,8.40
2022-09-04T04:09:40.277Z,7.80
2022-09-04T04:10:40.267Z,8.40
2022-09-04T04:11:43.483Z,7.90
2022-09-04T04:12:40.258Z,7.90
2022-09-04T04:13:40.237Z,7.60
2022-09-04T04:14:40.219Z,7.50
2022-09-04T04:15:40.208Z,7.50
2022-09-04T04:16:40.256Z,7.50
2022-09-04T04:17:40.218Z,7.20
2022-09-04T04:18:40.176Z,7.00
2022-09-04T04:19:40.169Z,7.20
2022-09-04T04:20:40.164Z,6.90
2022-09-04T04:21:40.150Z,7.00
2022-09-04T04:22:40.154Z,7.10
2022-09-04T04:23:40.131Z,7.40
2022-09-04T04:24:40.101Z,7.10
2022-09-04T04:25:40.101Z,6.60
2022-09-04T04:26:40.092Z,6.90
2022-09-04T04:27:40.082Z,7.40
2022-09-04T04:28:40.093Z,7.00
2022-09-04T04:29:40.063Z,6.80
2022-09-04T04:30:40.042Z,6.70
2022-09-04T04:31:40.185Z,7.10
2022-09-04T04:32:40.047Z,7.70
2022-09-04T04:33:40.012Z,7.30
2022-09-04T04:34:40.003Z,7.20
2022-09-04T04:35:39.995Z,6.60
2022-09-04T04:36:39.984Z,6.80
2022-09-04T04:37:39.974Z,7.30
2022-09-04T04:38:39.964Z,6.80
2022-09-04T04:39:40.055Z,7.20
2022-09-04T04:40:39.939Z,6.90
2022-09-04T04:41:39.918Z,7.20
2022-09-04T04:42:39.925Z,7.10
2022-09-04T04:43:39.906Z,7.20
2022-09-04T04:44:39.895Z,7.20
2022-09-04T04:45:39.875Z,7.60
2022-09-04T04:46:39.923Z,7.50
2022-09-04T04:47:39.975Z,7.60
2022-09-04T04:48:39.845Z,7.80
2022-09-04T04:49:39.934Z,7.50
2022-09-04T04:50:39.828Z,7.20
2022-09-04T04:51:39.809Z,7.50
2022-09-04T04:52:39.827Z,7.50
2022-09-04T04:53:39.791Z,7.60
2022-09-04T04:54:39.778Z,7.30
2022-09-04T04:55:39.925Z,7.50
2022-09-04T04:56:39.759Z,7.70
2022-09-04T04:57:39.857Z,7.70
2022-09-04T04:58:39.748Z,8.10
2022-09-04T04:59:39.717Z,7.70
2022-09-04T05:00:39.709Z,8.20
2022-09-04T05:01:39.914Z,7.30
2022-09-04T05:02:39.958Z,7.80
2022-09-04T05:03:39.801Z,7.40
2022-09-04T05:04:39.660Z,8.00
2022-09-04T05:05:39.680Z,8.40
2022-09-04T05:06:39.639Z,7.90
2022-09-04T05:07:39.710Z,8.50
2022-09-04T05:08:39.619Z,8.20
2022-09-04T05:09:39.621Z,8.60
2022-09-04T05:10:39.594Z,8.70
2022-09-04T05:11:39.670Z,9.20
2022-09-04T05:12:39.631Z,9.50
2022-09-04T05:13:39.662Z,9.20
2022-09-04T05:14:39.552Z,8.80
2022-09-04T05:15:58.074Z,9.60
2022-09-04T05:16:40.583Z,9.50
2022-09-04T05:17:39.535Z,8.90
2022-09-04T05:18:39.515Z,10.00
2022-09-04T05:19:39.504Z,9.60
2022-09-04T05:20:39.484Z,9.00
2022-09-04T05:21:39.704Z,9.50
2022-09-04T05:22:39.491Z,9.80
2022-09-04T05:23:39.458Z,10.20
2022-09-04T05:24:39.435Z,9.80
2022-09-04T05:25:39.450Z,10.20
2022-09-04T05:26:39.444Z,10.30
2022-09-04T05:27:39.426Z,10.00
2022-09-04T05:28:39.407Z,10.50
2022-09-04T05:29:39.418Z,10.50
2022-09-04T05:30:39.387Z,10.40
2022-09-04T05:31:39.430Z,11.00
2022-09-04T05:32:39.367Z,11.40
2022-09-04T05:33:39.346Z,11.30
2022-09-04T05:34:39.340Z,10.80
2022-09-04T05:35:39.325Z,10.60
2022-09-04T05:36:39.316Z,11.10
2022-09-04T05:37:39.300Z,11.40
2022-09-04T05:38:39.309Z,11.10
2022-09-04T05:39:39.311Z,11.60
2022-09-04T05:40:39.259Z,11.30
2022-09-04T05:41:39.270Z,11.70
2022-09-04T05:42:39.249Z,11.80
2022-09-04T05:43:39.229Z,12.30
2022-09-04T05:44:39.220Z,11.70
2022-09-04T05:45:39.211Z,11.90
2022-09-04T05:46:39.257Z,12.00
2022-09-04T05:47:39.218Z,11.70
2022-09-04T05:48:39.181Z,11.80
2022-09-04T05:49:39.185Z,11.90
2022-09-04T05:50:39.151Z,12.10
2022-09-04T05:51:39.153Z,12.30
2022-09-04T05:52:39.146Z,12.20
2022-09-04T05:53:39.134Z,12.00
2022-09-04T05:54:39.103Z,11.30
2022-09-04T05:55:39.124Z,11.70
2022-09-04T05:56:39.094Z,12.00
2022-09-04T05:57:39.073Z,11.70
2022-09-04T05:58:39.065Z,12.30
2022-09-04T05:59:39.063Z,11.90
2022-09-04T06:00:39.036Z,12.10
2022-09-04T06:01:39.101Z,11.50
2022-09-04T06:02:39.111Z,11.80
2022-09-04T06:03:39.006Z,11.60
2022-09-04T06:04:38.995Z,12.10
2022-09-04T06:05:38.994Z,11.40
2022-09-04T06:06:38.990Z,12.20
2022-09-04T06:07:38.966Z,12.30
2022-09-04T06:08:38.964Z,12.50
2022-09-04T06:09:38.946Z,12.50
2022-09-04T06:10:38.939Z,13.20
2022-09-04T06:11:38.967Z,14.10
2022-09-04T06:12:38.920Z,12.90
2022-09-04T06:13:38.916Z,12.90
2022-09-04T06:14:38.899Z,12.10
2022-09-04T06:15:38.953Z,12.70
2022-09-04T06:16:38.880Z,12.30
2022-09-04T06:17:38.914Z,11.80
2022-09-04T06:18:38.849Z,12.80
2022-09-04T06:19:38.966Z,12.50
2022-09-04T06:20:38.861Z,12.30
2022-09-04T06:21:38.848Z,12.10
2022-09-04T06:22:38.861Z,11.60
2022-09-04T06:23:38.794Z,11.90
2022-09-04T06:24:38.791Z,11.40
2022-09-04T06:25:38.774Z,10.50
2022-09-04T06:26:38.772Z,10.00
2022-09-04T06:27:38.752Z,10.20
2022-09-04T06:28:38.762Z,10.60
2022-09-04T06:29:38.732Z,9.80
2022-09-04T06:30:38.724Z,10.20
2022-09-04T06:31:38.771Z,10.90
2022-09-04T06:32:38.696Z,10.40
2022-09-04T06:33:38.759Z,9.90
2022-09-04T06:34:38.674Z,10.20
2022-09-04T06:35:38.655Z,10.90
2022-09-04T06:36:38.653Z,10.20
2022-09-04T06:37:38.640Z,10.20
2022-09-04T06:38:38.615Z,9.50
2022-09-04T06:39:38.647Z,10.60
2022-09-04T06:40:38.655Z,10.20
2022-09-04T06:41:38.624Z,10.30
2022-09-04T06:42:38.576Z,9.70
2022-09-04T06:43:38.569Z,9.40
2022-09-04T06:44:38.567Z,10.00
2022-09-04T06:45:38.555Z,9.10
2022-09-04T06:46:38.611Z,9.70
2022-09-04T06:47:38.540Z,9.40
2022-09-04T06:48:38.523Z,9.10
2022-09-04T06:49:38.515Z,9.80
2022-09-04T06:50:38.498Z,10.40
2022-09-04T06:51:38.488Z,9.60
2022-09-04T06:52:38.492Z,9.80
2022-09-04T06:53:38.460Z,9.40
2022-09-04T06:54:38.582Z,9.60
2022-09-04T06:55:38.441Z,10.50
2022-09-04T06:56:38.445Z,9.20
2022-09-04T06:57:38.422Z,9.80
2022-09-04T06:58:38.400Z,9.40
2022-09-04T06:59:38.393Z,9.80
2022-09-04T07:00:38.376Z,10.70
2022-09-04T07:01:38.500Z,10.30
2022-09-04T07:02:38.485Z,9.80
2022-09-04T07:03:38.349Z,8.10
2022-09-04T07:04:38.336Z,9.00
2022-09-04T07:05:38.325Z,9.60
2022-09-04T07:06:38.326Z,9.20
2022-09-04T07:07:38.306Z,8.70
2022-09-04T07:08:38.296Z,8.60
2022-09-04T07:09:38.278Z,9.30
2022-09-04T07:10:38.267Z,10.50
2022-09-04T07:11:38.296Z,9.40
2022-09-04T07:12:38.251Z,9.00
2022-09-04T07:13:38.240Z,9.00
2022-09-04T07:14:38.228Z,8.70
2022-09-04T07:15:38.237Z,8.40
2022-09-04T07:16:38.230Z,8.90
2022-09-04T07:17:38.205Z,8.00
2022-09-04T07:18:38.180Z,8.60
2022-09-04T07:19:38.182Z,8.90
2022-09-04T07:20:38.163Z,8.50
2022-09-04T07:21:38.214Z,8.40
2022-09-04T07:22:38.143Z,9.10
2022-09-04T07:23:38.135Z,8.20
2022-09-04T07:24:38.117Z,7.70
2022-09-04T07:25:38.115Z,9.00
2022-09-04T07:26:38.205Z,8.70
2022-09-04T07:27:38.085Z,8.90
2022-09-04T07:28:38.237Z,8.60
2022-09-04T07:29:38.076Z,9.00
2022-09-04T07:30:38.047Z,8.20
2022-09-04T07:31:38.078Z,8.20
2022-09-04T07:32:38.040Z,7.60
2022-09-04T07:33:38.018Z,8.10
2022-09-04T07:34:38.012Z,8.00
2022-09-04T07:35:38.007Z,8.00
2022-09-04T07:36:38.018Z,7.90
2022-09-04T07:37:37.980Z,7.10
2022-09-04T07:38:37.961Z,7.10
2022-09-04T07:39:38.017Z,7.40
2022-09-04T07:40:38.308Z,7.40
2022-09-04T07:41:37.954Z,7.40
2022-09-04T07:42:37.922Z,6.80
2022-09-04T07:43:37.914Z,6.40
2022-09-04T07:44:37.905Z,6.50
2022-09-04T07:45:37.902Z,6.50
2022-09-04T07:46:37.927Z,6.60
2022-09-04T07:47:37.874Z,6.70
2022-09-04T07:48:37.855Z,7.70
2022-09-04T07:49:37.860Z,7.20
2022-09-04T07:50:37.837Z,6.40
2022-09-04T07:51:37.846Z,5.90
2022-09-04T07:52:37.817Z,6.00
2022-09-04T07:53:37.812Z,6.30
2022-09-04T07:54:37.796Z,5.90
2022-09-04T07:55:37.817Z,6.00
2022-09-04T07:56:37.788Z,5.50
2022-09-04T07:57:37.767Z,5.50
2022-09-04T07:58:37.757Z,5.50
2022-09-04T07:59:37.984Z,5.60
2022-09-04T08:00:37.730Z,5.80
2022-09-04T08:01:40.318Z,5.70
2022-09-04T08:02:37.723Z,5.70
2022-09-04T08:03:37.702Z,5.30
2022-09-04T08:04:38.896Z,5.40
2022-09-04T08:05:37.683Z,5.20
2022-09-04T08:06:37.676Z,5.40
2022-09-04T08:07:37.654Z,5.30
2022-09-04T08:08:37.664Z,4.60
2022-09-04T08:09:37.634Z,4.50
2022-09-04T08:10:37.636Z,4.80
2022-09-04T08:11:37.628Z,5.30
2022-09-04T08:12:37.608Z,5.60
2022-09-04T08:13:37.609Z,4.90
2022-09-04T08:14:37.602Z,4.60
2022-09-04T08:15:42.193Z,4.50
2022-09-04T08:16:38.586Z,5.00
2022-09-04T08:17:37.562Z,4.70
2022-09-04T08:18:37.550Z,4.30
2022-09-04T08:19:37.652Z,4.50
2022-09-04T08:20:37.532Z,4.50
2022-09-04T08:21:37.522Z,5.00
2022-09-04T08:22:37.510Z,5.20
2022-09-04T08:23:37.494Z,5.10
2022-09-04T08:24:37.494Z,4.80
2022-09-04T08:25:37.486Z,5.00
2022-09-04T08:26:37.475Z,4.60
2022-09-04T08:27:44.237Z,4.70
2022-09-04T08:28:40.951Z,4.60
2022-09-04T08:29:38.437Z,5.00
2022-09-04T08:30:37.482Z,4.30
2022-09-04T08:31:37.417Z,4.40
2022-09-04T08:32:38.380Z,4.20
2022-09-04T08:33:37.393Z,4.10
2022-09-04T08:34:37.398Z,5.00
2022-09-04T08:35:37.472Z,4.50
2022-09-04T08:36:37.370Z,4.10
2022-09-04T08:37:37.361Z,4.50
2022-09-04T08:38:37.369Z,4.20
2022-09-04T08:39:37.420Z,4.50
2022-09-04T08:40:37.382Z,4.20
2022-09-04T08:41:37.313Z,4.10
2022-09-04T08:42:37.303Z,4.40
2022-09-04T08:43:37.333Z,4.10
2022-09-04T08:44:37.286Z,4.40
2022-09-04T08:45:42.425Z,4.30
2022-09-04T08:46:38.314Z,4.00
2022-09-04T08:47:37.256Z,4.30
2022-09-04T08:48:37.235Z,4.00
2022-09-04T08:49:37.248Z,4.50
2022-09-04T08:50:37.257Z,4.40
2022-09-04T08:51:37.218Z,4.10
2022-09-04T08:52:37.217Z,4.00
2022-09-04T08:53:37.198Z,3.70
2022-09-04T08:54:37.181Z,3.80
2022-09-04T08:55:37.190Z,3.40
2022-09-04T08:56:37.170Z,3.40
2022-09-04T08:57:37.157Z,3.60
2022-09-04T08:58:37.143Z,3.90
2022-09-04T08:59:37.143Z,4.20
2022-09-04T09:00:37.134Z,3.50
2022-09-04T09:01:37.161Z,3.60
2022-09-04T09:02:37.137Z,3.60
2022-09-04T09:03:37.093Z,3.50
2022-09-04T09:04:37.086Z,3.50
2022-09-04T09:05:37.098Z,3.80
2022-09-04T09:06:37.065Z,3.10
2022-09-04T09:07:37.065Z,3.80
2022-09-04T09:08:37.046Z,3.50
2022-09-04T09:09:37.079Z,3.40
2022-09-04T09:10:37.042Z,3.20
2022-09-04T09:11:37.038Z,3.00
2022-09-04T09:12:40.814Z,3.10
2022-09-04T09:13:37.008Z,3.50
2022-09-04T09:14:36.989Z,3.00
2022-09-04T09:15:37.008Z,3.30
2022-09-04T09:16:37.049Z,2.70
2022-09-04T09:17:36.991Z,2.60
2022-09-04T09:18:36.969Z,2.70
2022-09-04T09:19:36.942Z,2.40
2022-09-04T09:20:36.942Z,2.70
2022-09-04T09:21:36.937Z,2.90
2022-09-04T09:22:36.918Z,2.90
2022-09-04T09:23:36.905Z,2.70
2022-09-04T09:24:36.893Z,2.20
2022-09-04T09:25:39.924Z,2.50
2022-09-04T09:26:37.877Z,2.60
2022-09-04T09:27:36.865Z,2.70
2022-09-04T09:28:36.857Z,2.40
2022-09-04T09:29:36.877Z,2.10
2022-09-04T09:30:36.885Z,2.30
2022-09-04T09:31:36.908Z,2.20
2022-09-04T09:32:36.818Z,2.60
2022-09-04T09:33:36.858Z,2.20
2022-09-04T09:34:36.801Z,2.30
2022-09-04T09:35:36.797Z,2.70
2022-09-04T09:36:36.789Z,3.10
2022-09-04T09:37:36.785Z,2.80
2022-09-04T09:38:36.761Z,2.60
2022-09-04T09:39:36.810Z,2.50
2022-09-04T09:40:36.740Z,2.50
2022-09-04T09:41:36.752Z,2.50
2022-09-04T09:42:36.723Z,2.20
2022-09-04T09:43:36.722Z,2.40
2022-09-04T09:44:36.703Z,2.20
2022-09-04T09:45:36.769Z,2.30
2022-09-04T09:46:36.805Z,2.50
2022-09-04T09:47:36.686Z,2.20
2022-09-04T09:48:36.666Z,2.40
2022-09-04T09:49:36.658Z,2.70
2022-09-04T09:50:36.647Z,2.10
2022-09-04T09:51:36.979Z,2.50
2022-09-04T09:52:36.627Z,2.30
2022-09-04T09:53:36.617Z,1.90
2022-09-04T09:54:36.756Z,1.80
2022-09-04T09:55:36.609Z,1.90
2022-09-04T09:56:36.699Z,1.60
2022-09-04T09:57:36.609Z,1.70
2022-09-04T09:58:36.571Z,1.50
2022-09-04T09:59:36.632Z,1.60
2022-09-04T10:00:36.552Z,1.60
2022-09-04T10:01:36.616Z,1.70
2022-09-04T10:02:36.658Z,1.80
2022-09-04T10:03:36.532Z,1.70
2022-09-04T10:04:36.612Z,1.70
2022-09-04T10:05:36.512Z,1.60
2022-09-04T10:06:36.506Z,1.90
2022-09-04T10:07:36.503Z,29.30
2022-09-04T10:08:36.603Z,6.40
2022-09-04T10:09:36.485Z,2.50
2022-09-04T10:10:36.477Z,2.00
2022-09-04T10:11:36.486Z,2.00
2022-09-04T10:12:36.449Z,1.90
2022-09-04T10:13:36.447Z,1.60
2022-09-04T10:14:36.435Z,2.10
2022-09-04T10:15:36.418Z,1.80
2022-09-04T10:16:36.443Z,1.90
2022-09-04T10:17:36.418Z,1.80
2022-09-04T10:18:36.389Z,1.90
2022-09-04T10:19:39.106Z,2.10
2022-09-04T10:20:36.409Z,1.70
2022-09-04T10:21:36.380Z,1.70
2022-09-04T10:22:36.361Z,1.70
2022-09-04T10:23:36.377Z,1.70
2022-09-04T10:24:36.332Z,1.70
2022-09-04T10:25:36.332Z,1.60
2022-09-04T10:26:36.345Z,1.60
2022-09-04T10:27:38.576Z,1.70
2022-09-04T10:28:37.305Z,1.40
2022-09-04T10:29:36.308Z,1.60
2022-09-04T10:30:36.334Z,1.50
2022-09-04T10:31:36.335Z,1.60
2022-09-04T10:32:36.347Z,1.50
2022-09-04T10:33:36.268Z,1.60
2022-09-04T10:34:36.256Z,1.40
2022-09-04T10:35:36.246Z,1.60
2022-09-04T10:36:36.246Z,1.80
2022-09-04T10:37:36.255Z,2.30
2022-09-04T10:38:36.224Z,1.40
2022-09-04T10:39:36.261Z,1.70
2022-09-04T10:40:40.896Z,1.70
2022-09-04T10:41:37.229Z,1.40
2022-09-04T10:42:36.181Z,1.50
2022-09-04T10:43:36.180Z,1.30
2022-09-04T10:44:36.169Z,1.50
2022-09-04T10:45:36.240Z,1.40
2022-09-04T10:46:36.163Z,1.70
2022-09-04T10:47:36.153Z,1.60
2022-09-04T10:48:36.143Z,1.50
2022-09-04T10:49:36.135Z,1.50
2022-09-04T10:50:36.113Z,1.50
2022-09-04T10:51:36.122Z,1.50
2022-09-04T10:52:36.114Z,1.50
2022-09-04T10:53:36.104Z,1.70
2022-09-04T10:54:36.072Z,1.80
2022-09-04T10:55:36.075Z,1.20
2022-09-04T10:56:36.143Z,1.50
2022-09-04T10:57:36.062Z,1.70
2022-09-04T10:58:36.038Z,1.50
2022-09-04T10:59:36.049Z,1.70
2022-09-04T11:00:36.055Z,1.40
2022-09-04T11:01:36.075Z,1.60
2022-09-04T11:02:36.049Z,1.80
2022-09-04T11:03:36.004Z,1.50
2022-09-04T11:04:36.017Z,1.50
2022-09-04T11:05:35.998Z,1.10
2022-09-04T11:06:35.983Z,1.30
2022-09-04T11:07:35.961Z,1.60
2022-09-04T11:08:35.965Z,1.20
2022-09-04T11:09:35.942Z,1.10
2022-09-04T11:10:35.953Z,1.20
2022-09-04T11:11:35.930Z,1.40
2022-09-04T11:12:35.921Z,1.30
2022-09-04T11:13:35.905Z,1.40
2022-09-04T11:14:35.904Z,1.20
2022-09-04T11:15:35.896Z,1.20
2022-09-04T11:16:35.934Z,1.20
2022-09-04T11:17:35.875Z,1.30
2022-09-04T11:18:35.865Z,1.20
2022-09-04T11:19:35.862Z,1.20
2022-09-04T11:20:35.909Z,1.20
2022-09-04T11:21:35.853Z,1.20
2022-09-04T11:22:35.839Z,1.40
2022-09-04T11:23:35.826Z,1.30
2022-09-04T11:24:35.847Z,1.20
2022-09-04T11:25:35.819Z,1.40
2022-09-04T11:26:35.801Z,1.40
2022-09-04T11:27:35.789Z,1.30
2022-09-04T11:28:35.787Z,1.20
2022-09-04T11:29:35.772Z,1.40
2022-09-04T11:30:35.780Z,1.00
2022-09-04T11:31:35.785Z,1.40
2022-09-04T11:32:35.750Z,1.40
2022-09-04T11:33:35.731Z,1.30
2022-09-04T11:34:35.733Z,1.20
2022-09-04T11:35:35.740Z,1.50
2022-09-04T11:36:35.713Z,1.00
2022-09-04T11:37:35.702Z,1.20
2022-09-04T11:38:35.705Z,1.20
2022-09-04T11:39:35.703Z,1.20
2022-09-04T11:40:35.724Z,1.20
2022-09-04T11:41:35.675Z,1.30
2022-09-04T11:42:35.659Z,1.00
2022-09-04T11:43:35.656Z,1.20
2022-09-04T11:44:35.728Z,1.10
2022-09-04T11:45:35.707Z,1.10
2022-09-04T11:46:35.628Z,1.10
2022-09-04T11:47:35.627Z,1.30
2022-09-04T11:48:35.606Z,1.10
2022-09-04T11:49:35.589Z,1.00
2022-09-04T11:50:35.598Z,1.20
2022-09-04T11:51:35.569Z,1.20
2022-09-04T11:52:35.565Z,1.20
2022-09-04T11:53:35.560Z,1.40
2022-09-04T11:54:35.543Z,1.10
2022-09-04T11:55:35.543Z,1.10
2022-09-04T11:56:35.531Z,2.40
2022-09-04T11:57:35.513Z,1.60
2022-09-04T11:58:35.514Z,1.30
2022-09-04T11:59:35.499Z,1.40
2022-09-04T12:00:35.496Z,1.20
2022-09-04T12:01:35.481Z,1.30
2022-09-04T12:02:35.523Z,1.20
2022-09-04T12:03:35.482Z,1.40
2022-09-04T12:04:35.449Z,1.20
2022-09-04T12:05:35.447Z,1.20
2022-09-04T12:06:35.430Z,1.40
2022-09-04T12:07:42.671Z,1.10
2022-09-04T12:08:36.418Z,1.50
2022-09-04T12:09:35.390Z,1.40
2022-09-04T12:10:35.422Z,1.30
2022-09-04T12:11:35.401Z,1.30
2022-09-04T12:12:35.370Z,1.40
2022-09-04T12:13:35.354Z,1.50
2022-09-04T12:14:35.354Z,1.40
2022-09-04T12:15:35.342Z,1.20
2022-09-04T12:16:35.402Z,1.20
2022-09-04T12:17:35.314Z,1.20
2022-09-04T12:18:35.304Z,1.30
2022-09-04T12:19:35.298Z,1.40
2022-09-04T12:20:35.318Z,1.10
2022-09-04T12:21:35.363Z,1.30
2022-09-04T12:22:35.269Z,1.30
2022-09-04T12:23:35.255Z,1.30
2022-09-04T12:24:35.256Z,1.30
2022-09-04T12:25:35.227Z,1.50
2022-09-04T12:26:35.297Z,1.90
2022-09-04T12:27:35.211Z,1.30
2022-09-04T12:28:35.211Z,1.40
2022-09-04T12:29:35.190Z,1.40
2022-09-04T12:30:35.179Z,1.40
2022-09-04T12:31:35.235Z,1.40
2022-09-04T12:32:35.173Z,1.10
2022-09-04T12:33:35.143Z,1.50
2022-09-04T12:34:35.143Z,1.10
2022-09-04T12:35:35.133Z,1.20
2022-09-04T12:36:35.213Z,1.60
2022-09-04T12:37:35.152Z,1.20
2022-09-04T12:38:35.213Z,1.20
2022-09-04T12:39:35.142Z,1.40
2022-09-04T12:40:35.083Z,1.40
2022-09-04T12:41:35.095Z,1.20
2022-09-04T12:42:35.056Z,1.30
2022-09-04T12:43:38.655Z,1.30
2022-09-04T12:44:35.037Z,1.30
2022-09-04T12:45:35.160Z,1.10
2022-09-04T12:46:35.058Z,1.40
2022-09-04T12:47:35.145Z,1.10
2022-09-04T12:48:34.998Z,1.40
2022-09-04T12:49:35.653Z,1.10
2022-09-04T12:50:34.973Z,1.50
2022-09-04T12:51:34.961Z,1.30
2022-09-04T12:52:34.964Z,1.50
2022-09-04T12:53:34.940Z,1.20
2022-09-04T12:54:34.972Z,1.30
2022-09-04T12:55:36.260Z,1.20
2022-09-04T12:56:34.941Z,1.20
2022-09-04T12:57:34.903Z,1.00
2022-09-04T12:58:34.884Z,1.20
2022-09-04T12:59:34.876Z,1.40
2022-09-04T13:00:40.875Z,0.90
2022-09-04T13:01:35.953Z,1.00
2022-09-04T13:02:34.979Z,1.10
2022-09-04T13:03:35.024Z,1.10
2022-09-04T13:04:34.824Z,0.90
2022-09-04T13:05:34.816Z,0.90
2022-09-04T13:06:34.808Z,1.00
2022-09-04T13:07:34.797Z,0.80
2022-09-04T13:08:34.784Z,0.80
2022-09-04T13:09:34.769Z,0.90
2022-09-04T13:10:34.759Z,0.90
2022-09-04T13:11:34.790Z,0.90
2022-09-04T13:12:34.741Z,0.90
2022-09-04T13:13:34.739Z,1.00
2022-09-04T13:14:34.722Z,1.10
2022-09-04T13:15:34.701Z,1.00